sensor_id;sensor_type;location;lat;lon;timestamp;pressure;altitude;pressure_sealevel;temperature;humidity
18607;BME280;9433;42.678;23.360;2022-08-19T00:00:09;94950.28;;;26.74;47.53
18607;BME280;9433;42.678;23.360;2022-08-19T00:02:41;94938.94;;;27.12;46.61
18607;BME280;9433;42.678;23.360;2022-08-19T00:05:10;94952.75;;;26.52;48.27
18607;BME280;9433;42.678;23.360;2022-08-19T00:07:38;94958.47;;;26.10;49.27
18607;BME280;9433;42.678;23.360;2022-08-19T00:10:06;94958.19;;;26.52;48.83
18607;BME280;9433;42.678;23.360;2022-08-19T00:12:33;94950.00;;;26.86;47.52
18607;BME280;9433;42.678;23.360;2022-08-19T00:15:03;94959.19;;;26.70;47.46
18607;BME280;9433;42.678;23.360;2022-08-19T00:17:31;94958.09;;;26.79;47.54
18607;BME280;9433;42.678;23.360;2022-08-19T00:19:58;94961.75;;;26.53;47.91
18607;BME280;9433;42.678;23.360;2022-08-19T00:22:24;94969.25;;;26.63;48.14
18607;BME280;9433;42.678;23.360;2022-08-19T00:24:55;94972.28;;;26.58;47.88
18607;BME280;9433;42.678;23.360;2022-08-19T00:27:21;94959.13;;;26.63;47.41
18607;BME280;9433;42.678;23.360;2022-08-19T00:29:49;94971.22;;;26.66;47.08
18607;BME280;9433;42.678;23.360;2022-08-19T00:32:16;94968.44;;;25.98;49.03
18607;BME280;9433;42.678;23.360;2022-08-19T00:34:43;94974.94;;;26.20;48.70
18607;BME280;9433;42.678;23.360;2022-08-19T00:37:10;94973.09;;;26.62;48.20
18607;BME280;9433;42.678;23.360;2022-08-19T00:39:36;94961.09;;;26.33;48.39
18607;BME280;9433;42.678;23.360;2022-08-19T00:42:05;94953.81;;;26.44;48.59
18607;BME280;9433;42.678;23.360;2022-08-19T00:44:32;94963.50;;;26.41;48.33
18607;BME280;9433;42.678;23.360;2022-08-19T00:46:59;94961.94;;;26.40;48.07
18607;BME280;9433;42.678;23.360;2022-08-19T00:49:30;94964.50;;;26.56;48.15
18607;BME280;9433;42.678;23.360;2022-08-19T00:52:00;94955.72;;;25.80;49.71
18607;BME280;9433;42.678;23.360;2022-08-19T00:54:29;94936.00;;;25.86;49.55
18607;BME280;9433;42.678;23.360;2022-08-19T00:56:57;94961.84;;;26.30;49.07
18607;BME280;9433;42.678;23.360;2022-08-19T00:59:27;94962.84;;;26.48;48.54
18607;BME280;9433;42.678;23.360;2022-08-19T01:01:54;94957.28;;;26.41;48.49
18607;BME280;9433;42.678;23.360;2022-08-19T01:04:21;94960.09;;;26.48;48.50
18607;BME280;9433;42.678;23.360;2022-08-19T01:06:48;94960.22;;;26.59;47.83
18607;BME280;9433;42.678;23.360;2022-08-19T01:09:15;94960.03;;;26.11;49.34
18607;BME280;9433;42.678;23.360;2022-08-19T01:11:43;94964.75;;;26.14;49.68
18607;BME280;9433;42.678;23.360;2022-08-19T01:14:11;94955.53;;;25.69;50.47
18607;BME280;9433;42.678;23.360;2022-08-19T01:16:40;94960.63;;;25.97;50.05
18607;BME280;9433;42.678;23.360;2022-08-19T01:19:13;94951.97;;;26.21;49.13
18607;BME280;9433;42.678;23.360;2022-08-19T01:21:48;94958.47;;;26.10;49.53
18607;BME280;9433;42.678;23.360;2022-08-19T01:24:19;94960.78;;;26.08;49.38
18607;BME280;9433;42.678;23.360;2022-08-19T01:26:46;94951.59;;;26.19;49.04
18607;BME280;9433;42.678;23.360;2022-08-19T01:29:13;94955.72;;;25.80;50.18
18607;BME280;9433;42.678;23.360;2022-08-19T01:31:40;94954.69;;;25.88;49.97
18607;BME280;9433;42.678;23.360;2022-08-19T01:34:07;94954.69;;;25.88;49.82
18607;BME280;9433;42.678;23.360;2022-08-19T01:36:39;94955.31;;;26.08;49.43
18607;BME280;9433;42.678;23.360;2022-08-19T01:39:10;94942.00;;;26.02;49.34
18607;BME280;9433;42.678;23.360;2022-08-19T01:41:39;94956.63;;;26.17;49.56
18607;BME280;9433;42.678;23.360;2022-08-19T01:44:06;94926.13;;;25.51;50.23
18607;BME280;9433;42.678;23.360;2022-08-19T01:46:33;94946.59;;;25.68;50.16
18607;BME280;9433;42.678;23.360;2022-08-19T01:49:01;94953.13;;;25.87;48.89
18607;BME280;9433;42.678;23.360;2022-08-19T01:51:28;94954.25;;;25.86;48.96
18607;BME280;9433;42.678;23.360;2022-08-19T01:53:56;94959.25;;;26.10;48.75
18607;BME280;9433;42.678;23.360;2022-08-19T01:56:23;94953.25;;;25.44;51.12
18607;BME280;9433;42.678;23.360;2022-08-19T01:58:54;94951.06;;;25.53;50.53
18607;BME280;9433;42.678;23.360;2022-08-19T02:01:22;94962.72;;;24.85;52.86
18607;BME280;9433;42.678;23.360;2022-08-19T02:03:48;94958.41;;;25.26;52.40
18607;BME280;9433;42.678;23.360;2022-08-19T02:06:17;94968.94;;;25.54;51.31
18607;BME280;9433;42.678;23.360;2022-08-19T02:08:43;94958.47;;;25.30;51.54
18607;BME280;9433;42.678;23.360;2022-08-19T02:11:19;94957.59;;;25.49;51.48
18607;BME280;9433;42.678;23.360;2022-08-19T02:13:46;94956.44;;;25.50;51.11
18607;BME280;9433;42.678;23.360;2022-08-19T02:16:16;94957.56;;;25.75;50.42
18607;BME280;9433;42.678;23.360;2022-08-19T02:18:43;94957.66;;;25.29;51.52
18607;BME280;9433;42.678;23.360;2022-08-19T02:21:10;94963.84;;;25.26;52.05
18607;BME280;9433;42.678;23.360;2022-08-19T02:23:38;94959.56;;;25.52;51.62
18607;BME280;9433;42.678;23.360;2022-08-19T02:26:05;94960.97;;;25.69;50.86
18607;BME280;9433;42.678;23.360;2022-08-19T02:28:32;94963.66;;;25.65;50.75
18607;BME280;9433;42.678;23.360;2022-08-19T02:30:59;94965.75;;;25.49;51.28
18607;BME280;9433;42.678;23.360;2022-08-19T02:33:29;94965.03;;;25.06;52.60
18607;BME280;9433;42.678;23.360;2022-08-19T02:35:56;94962.59;;;25.20;52.33
18607;BME280;9433;42.678;23.360;2022-08-19T02:38:23;94964.13;;;24.75;53.21
18607;BME280;9433;42.678;23.360;2022-08-19T02:40:54;94961.25;;;25.34;51.89
18607;BME280;9433;42.678;23.360;2022-08-19T02:43:22;94962.56;;;25.43;51.14
18607;BME280;9433;42.678;23.360;2022-08-19T02:45:50;94962.28;;;25.52;51.24
18607;BME280;9433;42.678;23.360;2022-08-19T02:48:18;94968.94;;;25.28;51.90
18607;BME280;9433;42.678;23.360;2022-08-19T02:50:47;94972.06;;;25.30;51.74
18607;BME280;9433;42.678;23.360;2022-08-19T02:53:18;94951.25;;;25.41;51.39
18607;BME280;9433;42.678;23.360;2022-08-19T02:55:45;94975.56;;;25.53;50.97
18607;BME280;9433;42.678;23.360;2022-08-19T02:58:13;94970.50;;;25.29;51.70
18607;BME280;9433;42.678;23.360;2022-08-19T03:00:42;94973.03;;;25.18;52.40
18607;BME280;9433;42.678;23.360;2022-08-19T03:03:10;94975.81;;;25.22;52.11
18607;BME280;9433;42.678;23.360;2022-08-19T03:05:36;94976.03;;;25.36;51.36
18607;BME280;9433;42.678;23.360;2022-08-19T03:08:05;94978.91;;;25.20;52.05
18607;BME280;9433;42.678;23.360;2022-08-19T03:10:32;94972.25;;;25.18;51.70
18607;BME280;9433;42.678;23.360;2022-08-19T03:12:58;94972.28;;;24.98;52.80
18607;BME280;9433;42.678;23.360;2022-08-19T03:15:25;94977.34;;;25.00;52.53
18607;BME280;9433;42.678;23.360;2022-08-19T03:17:52;94927.31;;;24.58;53.26
18607;BME280;9433;42.678;23.360;2022-08-19T03:20:19;94964.34;;;24.90;52.71
18607;BME280;9433;42.678;23.360;2022-08-19T03:22:46;94966.53;;;24.80;52.53
18607;BME280;9433;42.678;23.360;2022-08-19T03:25:14;94960.75;;;24.24;55.27
18607;BME280;9433;42.678;23.360;2022-08-19T03:27:41;94961.22;;;24.88;53.38
18607;BME280;9433;42.678;23.360;2022-08-19T03:30:10;94946.97;;;24.94;52.76
18607;BME280;9433;42.678;23.360;2022-08-19T03:32:36;94964.25;;;25.05;52.67
18607;BME280;9433;42.678;23.360;2022-08-19T03:35:04;94960.19;;;24.96;52.65
18607;BME280;9433;42.678;23.360;2022-08-19T03:37:31;94964.75;;;25.11;52.66
18607;BME280;9433;42.678;23.360;2022-08-19T03:39:58;94976.31;;;24.85;52.97
18607;BME280;9433;42.678;23.360;2022-08-19T03:42:26;94974.66;;;24.57;54.28
18607;BME280;9433;42.678;23.360;2022-08-19T03:44:53;94969.50;;;24.52;53.69
18607;BME280;9433;42.678;23.360;2022-08-19T03:47:20;94972.59;;;24.51;53.97
18607;BME280;9433;42.678;23.360;2022-08-19T03:49:47;94978.00;;;24.70;53.60
18607;BME280;9433;42.678;23.360;2022-08-19T03:52:14;94984.16;;;24.67;53.48
18607;BME280;9433;42.678;23.360;2022-08-19T03:54:41;94975.06;;;24.40;53.98
18607;BME280;9433;42.678;23.360;2022-08-19T03:57:08;94990.31;;;24.64;53.57
18607;BME280;9433;42.678;23.360;2022-08-19T03:59:38;94975.56;;;24.26;54.60
18607;BME280;9433;42.678;23.360;2022-08-19T04:02:07;95003.69;;;24.53;54.16
18607;BME280;9433;42.678;23.360;2022-08-19T04:04:35;95000.13;;;24.49;54.49
18607;BME280;9433;42.678;23.360;2022-08-19T04:07:03;95009.03;;;24.69;54.48
18607;BME280;9433;42.678;23.360;2022-08-19T04:09:30;95003.47;;;24.62;54.39
18607;BME280;9433;42.678;23.360;2022-08-19T04:11:57;94996.53;;;24.65;54.32
18607;BME280;9433;42.678;23.360;2022-08-19T04:14:26;95008.63;;;24.48;55.45
18607;BME280;9433;42.678;23.360;2022-08-19T04:16:57;95009.47;;;24.71;54.59
18607;BME280;9433;42.678;23.360;2022-08-19T04:19:25;95009.88;;;24.73;54.60
18607;BME280;9433;42.678;23.360;2022-08-19T04:21:54;95009.84;;;24.93;53.89
18607;BME280;9433;42.678;23.360;2022-08-19T04:24:22;95015.84;;;25.02;53.98
18607;BME280;9433;42.678;23.360;2022-08-19T04:26:49;95017.34;;;25.19;53.48
18607;BME280;9433;42.678;23.360;2022-08-19T04:29:18;95019.34;;;25.02;53.68
18607;BME280;9433;42.678;23.360;2022-08-19T04:31:48;95019.47;;;25.09;53.67
18607;BME280;9433;42.678;23.360;2022-08-19T04:34:18;95012.38;;;25.24;53.42
18607;BME280;9433;42.678;23.360;2022-08-19T04:36:48;95010.63;;;25.13;53.44
18607;BME280;9433;42.678;23.360;2022-08-19T04:39:17;95015.22;;;25.31;52.63
18607;BME280;9433;42.678;23.360;2022-08-19T04:41:45;95007.84;;;25.32;52.10
18607;BME280;9433;42.678;23.360;2022-08-19T04:44:29;95016.72;;;25.52;52.11
18607;BME280;9433;42.678;23.360;2022-08-19T04:46:56;95015.81;;;25.67;52.27
18607;BME280;9433;42.678;23.360;2022-08-19T04:49:25;94995.56;;;25.42;52.60
18607;BME280;9433;42.678;23.360;2022-08-19T04:51:53;94999.66;;;25.55;52.56
18607;BME280;9433;42.678;23.360;2022-08-19T04:54:21;95014.25;;;25.66;52.58
18607;BME280;9433;42.678;23.360;2022-08-19T04:56:48;95016.56;;;25.91;52.11
18607;BME280;9433;42.678;23.360;2022-08-19T04:59:17;95005.44;;;25.76;51.58
18607;BME280;9433;42.678;23.360;2022-08-19T05:01:46;95014.31;;;25.47;52.43
18607;BME280;9433;42.678;23.360;2022-08-19T05:04:15;95010.97;;;25.57;51.94
18607;BME280;9433;42.678;23.360;2022-08-19T05:06:43;95022.63;;;25.81;50.32
18607;BME280;9433;42.678;23.360;2022-08-19T05:09:10;95022.78;;;24.57;51.71
18607;BME280;9433;42.678;23.360;2022-08-19T05:11:37;95029.31;;;25.14;50.54
18607;BME280;9433;42.678;23.360;2022-08-19T05:14:05;95022.84;;;25.03;51.38
18607;BME280;9433;42.678;23.360;2022-08-19T05:16:32;95017.13;;;25.08;50.53
18607;BME280;9433;42.678;23.360;2022-08-19T05:18:58;95014.25;;;25.43;49.92
18607;BME280;9433;42.678;23.360;2022-08-19T05:21:44;95019.94;;;25.58;49.93
18607;BME280;9433;42.678;23.360;2022-08-19T05:24:29;94998.94;;;25.58;50.50
18607;BME280;9433;42.678;23.360;2022-08-19T05:27:00;95013.66;;;25.53;50.24
18607;BME280;9433;42.678;23.360;2022-08-19T05:29:30;95018.19;;;25.23;50.12
18607;BME280;9433;42.678;23.360;2022-08-19T05:31:58;95019.47;;;25.78;49.50
18607;BME280;9433;42.678;23.360;2022-08-19T05:34:26;95020.63;;;25.77;49.77
18607;BME280;9433;42.678;23.360;2022-08-19T05:36:56;95024.09;;;26.01;48.74
18607;BME280;9433;42.678;23.360;2022-08-19T05:39:25;95027.63;;;25.78;48.66
18607;BME280;9433;42.678;23.360;2022-08-19T05:41:54;95016.94;;;25.40;49.29
18607;BME280;9433;42.678;23.360;2022-08-19T05:44:23;95015.25;;;26.08;48.13
18607;BME280;9433;42.678;23.360;2022-08-19T05:46:50;95024.59;;;25.80;49.30
18607;BME280;9433;42.678;23.360;2022-08-19T05:49:21;95020.28;;;26.36;48.07
18607;BME280;9433;42.678;23.360;2022-08-19T05:51:49;95020.66;;;26.64;47.64
18607;BME280;9433;42.678;23.360;2022-08-19T05:54:18;95015.88;;;26.54;47.77
18607;BME280;9433;42.678;23.360;2022-08-19T05:56:45;95017.19;;;26.67;47.46
18607;BME280;9433;42.678;23.360;2022-08-19T05:59:14;95020.25;;;26.62;48.26
18607;BME280;9433;42.678;23.360;2022-08-19T06:01:43;95024.47;;;26.56;47.73
18607;BME280;9433;42.678;23.360;2022-08-19T06:04:11;95018.59;;;26.54;47.09
18607;BME280;9433;42.678;23.360;2022-08-19T06:06:39;95022.09;;;26.55;47.23
18607;BME280;9433;42.678;23.360;2022-08-19T06:09:07;95029.66;;;27.02;46.40
18607;BME280;9433;42.678;23.360;2022-08-19T06:11:39;95027.06;;;26.79;47.03
18607;BME280;9433;42.678;23.360;2022-08-19T06:14:09;95026.75;;;26.88;47.06
18607;BME280;9433;42.678;23.360;2022-08-19T06:16:38;95017.88;;;27.32;45.91
18607;BME280;9433;42.678;23.360;2022-08-19T06:19:07;95034.66;;;27.34;46.04
18607;BME280;9433;42.678;23.360;2022-08-19T06:21:36;95033.19;;;27.06;46.33
18607;BME280;9433;42.678;23.360;2022-08-19T06:24:04;95034.56;;;27.23;46.12
18607;BME280;9433;42.678;23.360;2022-08-19T06:26:33;95036.50;;;27.71;45.55
18607;BME280;9433;42.678;23.360;2022-08-19T06:29:02;95034.75;;;27.48;45.63
18607;BME280;9433;42.678;23.360;2022-08-19T06:31:31;95027.72;;;27.44;45.80
18607;BME280;9433;42.678;23.360;2022-08-19T06:33:59;95029.59;;;27.84;45.42
18607;BME280;9433;42.678;23.360;2022-08-19T06:36:30;95034.94;;;27.70;45.46
18607;BME280;9433;42.678;23.360;2022-08-19T06:38:59;95036.25;;;27.83;45.07
18607;BME280;9433;42.678;23.360;2022-08-19T06:41:27;95034.31;;;27.87;44.59
18607;BME280;9433;42.678;23.360;2022-08-19T06:43:55;95041.84;;;28.04;44.04
18607;BME280;9433;42.678;23.360;2022-08-19T06:46:23;95033.50;;;27.01;45.20
18607;BME280;9433;42.678;23.360;2022-08-19T06:48:50;95027.34;;;27.93;43.95
18607;BME280;9433;42.678;23.360;2022-08-19T06:51:19;95022.03;;;28.15;43.66
18607;BME280;9433;42.678;23.360;2022-08-19T06:53:46;95014.50;;;28.01;43.57
18607;BME280;9433;42.678;23.360;2022-08-19T06:56:13;95027.69;;;28.57;42.92
18607;BME280;9433;42.678;23.360;2022-08-19T06:58:40;95028.06;;;28.49;43.02
18607;BME280;9433;42.678;23.360;2022-08-19T07:01:08;95033.03;;;28.29;43.12
18607;BME280;9433;42.678;23.360;2022-08-19T07:03:37;95023.09;;;28.76;42.49
18607;BME280;9433;42.678;23.360;2022-08-19T07:06:06;95045.09;;;29.01;42.04
18607;BME280;9433;42.678;23.360;2022-08-19T07:08:33;95038.09;;;29.18;41.54
18607;BME280;9433;42.678;23.360;2022-08-19T07:11:02;95042.16;;;28.54;42.45
18607;BME280;9433;42.678;23.360;2022-08-19T07:13:29;95042.28;;;28.94;41.45
18607;BME280;9433;42.678;23.360;2022-08-19T07:16:03;95039.66;;;29.33;42.04
18607;BME280;9433;42.678;23.360;2022-08-19T07:18:30;95043.22;;;29.41;42.20
18607;BME280;9433;42.678;23.360;2022-08-19T07:21:04;95041.25;;;29.41;42.04
18607;BME280;9433;42.678;23.360;2022-08-19T07:23:31;95031.09;;;29.63;41.56
18607;BME280;9433;42.678;23.360;2022-08-19T07:25:58;95044.03;;;29.88;40.27
18607;BME280;9433;42.678;23.360;2022-08-19T07:28:30;95046.00;;;29.80;39.16
18607;BME280;9433;42.678;23.360;2022-08-19T07:30:57;95033.06;;;29.95;39.88
18607;BME280;9433;42.678;23.360;2022-08-19T07:33:25;95037.38;;;29.71;40.42
18607;BME280;9433;42.678;23.360;2022-08-19T07:35:52;94992.78;;;29.67;39.38
18607;BME280;9433;42.678;23.360;2022-08-19T07:38:21;95005.66;;;29.84;39.98
18607;BME280;9433;42.678;23.360;2022-08-19T07:40:47;95006.00;;;30.15;39.77
18607;BME280;9433;42.678;23.360;2022-08-19T07:43:16;95030.63;;;30.36;38.84
18607;BME280;9433;42.678;23.360;2022-08-19T07:45:50;95006.78;;;30.15;38.63
18607;BME280;9433;42.678;23.360;2022-08-19T07:48:17;95025.78;;;30.73;38.24
18607;BME280;9433;42.678;23.360;2022-08-19T07:50:44;94992.22;;;30.51;39.38
18607;BME280;9433;42.678;23.360;2022-08-19T07:53:11;95038.56;;;31.15;38.02
18607;BME280;9433;42.678;23.360;2022-08-19T07:55:40;95025.97;;;31.21;37.58
18607;BME280;9433;42.678;23.360;2022-08-19T07:58:07;95029.69;;;30.89;38.09
18607;BME280;9433;42.678;23.360;2022-08-19T08:00:37;95029.09;;;31.23;38.00
18607;BME280;9433;42.678;23.360;2022-08-19T08:03:04;95019.56;;;31.46;37.76
18607;BME280;9433;42.678;23.360;2022-08-19T08:05:31;95023.88;;;31.47;36.72
18607;BME280;9433;42.678;23.360;2022-08-19T08:08:15;95005.16;;;31.79;35.53
18607;BME280;9433;42.678;23.360;2022-08-19T08:11:01;95007.22;;;32.13;36.22
18607;BME280;9433;42.678;23.360;2022-08-19T08:13:28;95029.16;;;32.17;35.95
18607;BME280;9433;42.678;23.360;2022-08-19T08:15:55;95010.03;;;32.44;36.77
18607;BME280;9433;42.678;23.360;2022-08-19T08:18:21;95022.53;;;32.52;35.99
18607;BME280;9433;42.678;23.360;2022-08-19T08:20:49;95013.00;;;32.91;35.14
18607;BME280;9433;42.678;23.360;2022-08-19T08:23:15;95020.94;;;32.51;34.68
18607;BME280;9433;42.678;23.360;2022-08-19T08:25:50;94999.84;;;32.75;35.08
18607;BME280;9433;42.678;23.360;2022-08-19T08:28:19;94990.13;;;32.97;34.77
18607;BME280;9433;42.678;23.360;2022-08-19T08:30:46;94990.97;;;33.21;34.27
18607;BME280;9433;42.678;23.360;2022-08-19T08:33:14;94987.16;;;33.39;34.29
18607;BME280;9433;42.678;23.360;2022-08-19T08:35:43;95009.31;;;33.82;33.30
18607;BME280;9433;42.678;23.360;2022-08-19T08:38:11;95014.63;;;33.70;33.46
18607;BME280;9433;42.678;23.360;2022-08-19T08:40:44;95004.16;;;33.34;32.50
18607;BME280;9433;42.678;23.360;2022-08-19T08:43:24;94984.06;;;33.60;32.33
18607;BME280;9433;42.678;23.360;2022-08-19T08:46:05;94991.03;;;33.68;31.62
18607;BME280;9433;42.678;23.360;2022-08-19T08:48:37;94982.75;;;33.92;32.13
18607;BME280;9433;42.678;23.360;2022-08-19T08:51:09;94966.06;;;33.99;31.65
18607;BME280;9433;42.678;23.360;2022-08-19T08:53:36;94989.25;;;33.58;31.63
18607;BME280;9433;42.678;23.360;2022-08-19T08:56:04;94992.44;;;34.00;31.16
18607;BME280;9433;42.678;23.360;2022-08-19T08:58:42;94986.88;;;34.27;30.75
18607;BME280;9433;42.678;23.360;2022-08-19T09:01:12;94985.72;;;34.05;30.12
18607;BME280;9433;42.678;23.360;2022-08-19T09:03:40;94990.06;;;34.66;29.97
18607;BME280;9433;42.678;23.360;2022-08-19T09:06:13;94979.59;;;34.93;29.87
18607;BME280;9433;42.678;23.360;2022-08-19T09:08:48;94986.81;;;34.71;28.54
18607;BME280;9433;42.678;23.360;2022-08-19T09:11:25;94962.88;;;34.44;28.25
18607;BME280;9433;42.678;23.360;2022-08-19T09:14:10;94954.53;;;34.68;28.39
18607;BME280;9433;42.678;23.360;2022-08-19T09:16:39;94981.22;;;34.54;28.81
18607;BME280;9433;42.678;23.360;2022-08-19T09:19:07;94967.75;;;34.36;28.53
18607;BME280;9433;42.678;23.360;2022-08-19T09:21:36;94970.94;;;34.15;27.61
18607;BME280;9433;42.678;23.360;2022-08-19T09:24:04;94974.47;;;34.75;29.07
18607;BME280;9433;42.678;23.360;2022-08-19T09:26:32;94970.22;;;35.43;27.36
18607;BME280;9433;42.678;23.360;2022-08-19T09:29:01;94971.31;;;35.95;27.26
18607;BME280;9433;42.678;23.360;2022-08-19T09:31:31;94965.63;;;36.02;26.04
18607;BME280;9433;42.678;23.360;2022-08-19T09:33:58;94964.06;;;36.30;25.37
18607;BME280;9433;42.678;23.360;2022-08-19T09:36:27;94963.84;;;36.54;25.67
18607;BME280;9433;42.678;23.360;2022-08-19T09:38:58;94959.09;;;36.09;23.78
18607;BME280;9433;42.678;23.360;2022-08-19T09:41:26;94954.56;;;36.31;23.66
18607;BME280;9433;42.678;23.360;2022-08-19T09:43:55;94960.78;;;35.90;22.97
18607;BME280;9433;42.678;23.360;2022-08-19T09:46:24;94956.22;;;36.71;22.96
18607;BME280;9433;42.678;23.360;2022-08-19T09:48:52;94952.91;;;36.88;23.51
18607;BME280;9433;42.678;23.360;2022-08-19T09:51:21;94955.38;;;36.86;23.60
18607;BME280;9433;42.678;23.360;2022-08-19T09:53:50;94954.94;;;36.46;22.99
18607;BME280;9433;42.678;23.360;2022-08-19T09:56:20;94952.91;;;36.34;24.20
18607;BME280;9433;42.678;23.360;2022-08-19T09:58:47;94943.41;;;36.89;23.68
18607;BME280;9433;42.678;23.360;2022-08-19T10:01:19;94954.44;;;36.64;23.12
18607;BME280;9433;42.678;23.360;2022-08-19T10:03:49;94941.06;;;36.88;23.22
18607;BME280;9433;42.678;23.360;2022-08-19T10:06:17;94936.44;;;37.23;23.25
18607;BME280;9433;42.678;23.360;2022-08-19T10:08:45;94935.31;;;37.21;23.50
18607;BME280;9433;42.678;23.360;2022-08-19T10:11:12;94934.28;;;37.66;22.45
18607;BME280;9433;42.678;23.360;2022-08-19T10:13:42;94939.06;;;36.88;22.97
18607;BME280;9433;42.678;23.360;2022-08-19T10:16:11;94926.78;;;37.28;22.70
18607;BME280;9433;42.678;23.360;2022-08-19T10:18:39;94933.78;;;37.07;22.74
18607;BME280;9433;42.678;23.360;2022-08-19T10:21:11;94928.13;;;37.10;22.61
18607;BME280;9433;42.678;23.360;2022-08-19T10:23:40;94927.41;;;37.70;23.69
18607;BME280;9433;42.678;23.360;2022-08-19T10:26:11;94915.38;;;37.86;21.51
18607;BME280;9433;42.678;23.360;2022-08-19T10:28:38;94917.00;;;36.72;22.07
18607;BME280;9433;42.678;23.360;2022-08-19T10:31:07;94921.69;;;37.52;22.88
18607;BME280;9433;42.678;23.360;2022-08-19T10:33:35;94913.34;;;37.99;22.75
18607;BME280;9433;42.678;23.360;2022-08-19T10:36:04;94918.56;;;38.19;22.50
18607;BME280;9433;42.678;23.360;2022-08-19T10:38:33;94918.75;;;38.03;21.25
18607;BME280;9433;42.678;23.360;2022-08-19T10:41:06;94911.06;;;38.42;22.69
18607;BME280;9433;42.678;23.360;2022-08-19T10:43:33;94895.34;;;38.04;21.71
18607;BME280;9433;42.678;23.360;2022-08-19T10:46:02;94900.44;;;37.71;21.58
18607;BME280;9433;42.678;23.360;2022-08-19T10:48:31;94917.44;;;37.95;21.63
18607;BME280;9433;42.678;23.360;2022-08-19T10:50:57;94899.69;;;38.05;21.56
18607;BME280;9433;42.678;23.360;2022-08-19T10:53:43;94907.28;;;38.36;22.26
18607;BME280;9433;42.678;23.360;2022-08-19T10:56:10;94906.44;;;38.26;21.38
18607;BME280;9433;42.678;23.360;2022-08-19T10:58:54;94906.72;;;38.41;21.81
18607;BME280;9433;42.678;23.360;2022-08-19T11:01:22;94901.81;;;38.45;21.57
18607;BME280;9433;42.678;23.360;2022-08-19T11:03:48;94900.84;;;38.70;21.73
18607;BME280;9433;42.678;23.360;2022-08-19T11:06:16;94904.50;;;38.36;21.32
18607;BME280;9433;42.678;23.360;2022-08-19T11:08:44;94900.69;;;37.64;21.36
18607;BME280;9433;42.678;23.360;2022-08-19T11:11:11;94904.09;;;38.24;20.86
18607;BME280;9433;42.678;23.360;2022-08-19T11:13:40;94900.44;;;38.81;20.83
18607;BME280;9433;42.678;23.360;2022-08-19T11:16:08;94895.78;;;38.24;21.49
18607;BME280;9433;42.678;23.360;2022-08-19T11:18:37;94888.56;;;39.11;20.28
18607;BME280;9433;42.678;23.360;2022-08-19T11:21:08;94880.94;;;39.52;20.80
18607;BME280;9433;42.678;23.360;2022-08-19T11:23:36;94895.81;;;39.95;19.88
18607;BME280;9433;42.678;23.360;2022-08-19T11:26:05;94901.06;;;40.39;19.85
18607;BME280;9433;42.678;23.360;2022-08-19T11:28:31;94891.41;;;40.77;19.72
18607;BME280;9433;42.678;23.360;2022-08-19T11:30:58;94889.78;;;40.94;19.12
18607;BME280;9433;42.678;23.360;2022-08-19T11:33:25;94887.28;;;41.05;19.88
18607;BME280;9433;42.678;23.360;2022-08-19T11:35:52;94885.47;;;41.26;19.55
18607;BME280;9433;42.678;23.360;2022-08-19T11:38:19;94876.19;;;40.87;18.80
18607;BME280;9433;42.678;23.360;2022-08-19T11:40:54;94882.06;;;40.89;19.60
18607;BME280;9433;42.678;23.360;2022-08-19T11:43:23;94856.16;;;40.65;18.95
18607;BME280;9433;42.678;23.360;2022-08-19T11:45:52;94872.88;;;40.65;19.47
18607;BME280;9433;42.678;23.360;2022-08-19T11:48:19;94859.53;;;40.69;19.64
18607;BME280;9433;42.678;23.360;2022-08-19T11:50:47;94868.84;;;40.99;19.11
18607;BME280;9433;42.678;23.360;2022-08-19T11:53:14;94871.59;;;40.75;19.37
18607;BME280;9433;42.678;23.360;2022-08-19T11:55:41;94873.47;;;40.69;18.54
18607;BME280;9433;42.678;23.360;2022-08-19T11:58:08;94861.91;;;41.27;19.05
18607;BME280;9433;42.678;23.360;2022-08-19T12:00:37;94864.63;;;41.13;18.14
18607;BME280;9433;42.678;23.360;2022-08-19T12:03:05;94862.31;;;41.83;18.01
18607;BME280;9433;42.678;23.360;2022-08-19T12:05:31;94849.44;;;40.01;19.52
18607;BME280;9433;42.678;23.360;2022-08-19T12:07:58;94852.59;;;40.55;19.31
18607;BME280;9433;42.678;23.360;2022-08-19T12:10:25;94849.44;;;39.64;19.84
18607;BME280;9433;42.678;23.360;2022-08-19T12:12:52;94844.84;;;40.59;19.48
18607;BME280;9433;42.678;23.360;2022-08-19T12:15:19;94838.06;;;40.60;18.89
18607;BME280;9433;42.678;23.360;2022-08-19T12:17:47;94841.44;;;39.08;19.93
18607;BME280;9433;42.678;23.360;2022-08-19T12:20:14;94834.47;;;39.71;19.14
18607;BME280;9433;42.678;23.360;2022-08-19T12:22:42;94822.06;;;39.63;20.50
18607;BME280;9433;42.678;23.360;2022-08-19T12:25:11;94822.81;;;39.36;20.67
18607;BME280;9433;42.678;23.360;2022-08-19T12:27:38;94824.69;;;40.03;18.96
18607;BME280;9433;42.678;23.360;2022-08-19T12:30:07;94801.94;;;40.23;19.13
18607;BME280;9433;42.678;23.360;2022-08-19T12:32:34;94817.47;;;40.57;19.20
18607;BME280;9433;42.678;23.360;2022-08-19T12:35:03;94816.72;;;40.90;19.29
18607;BME280;9433;42.678;23.360;2022-08-19T12:37:30;94808.97;;;40.61;19.24
18607;BME280;9433;42.678;23.360;2022-08-19T12:39:58;94817.56;;;40.02;18.93
18607;BME280;9433;42.678;23.360;2022-08-19T12:42:24;94813.44;;;39.61;18.91
18607;BME280;9433;42.678;23.360;2022-08-19T12:44:51;94809.81;;;40.34;19.34
18607;BME280;9433;42.678;23.360;2022-08-19T12:47:18;94805.56;;;40.90;18.95
18607;BME280;9433;42.678;23.360;2022-08-19T12:49:45;94801.03;;;41.50;19.15
18607;BME280;9433;42.678;23.360;2022-08-19T12:52:14;94799.44;;;41.34;18.44
18607;BME280;9433;42.678;23.360;2022-08-19T12:54:42;94799.91;;;40.75;19.10
18607;BME280;9433;42.678;23.360;2022-08-19T12:57:10;94801.53;;;40.91;19.20
18607;BME280;9433;42.678;23.360;2022-08-19T12:59:38;94801.66;;;40.97;18.77
18607;BME280;9433;42.678;23.360;2022-08-19T13:02:06;94808.84;;;40.79;18.55
18607;BME280;9433;42.678;23.360;2022-08-19T13:04:34;94805.00;;;40.34;19.42
18607;BME280;9433;42.678;23.360;2022-08-19T13:07:03;94791.25;;;40.12;18.91